createdAt,value
2023-06-15T00:03:01.850Z,3.10
2023-06-15T00:06:04.147Z,3.80
2023-06-15T00:09:06.444Z,3.20
2023-06-15T00:12:10.608Z,3.65
2023-06-15T00:15:17.308Z,3.53
2023-06-15T00:18:20.373Z,3.50
2023-06-15T00:21:27.423Z,3.30
2023-06-15T00:24:29.992Z,3.63
2023-06-15T00:27:32.416Z,3.88
2023-06-15T00:30:34.768Z,4.07
2023-06-15T00:33:37.148Z,4.03
2023-06-15T00:36:42.805Z,3.85
2023-06-15T00:39:50.469Z,4.10
2023-06-15T00:42:55.362Z,3.47
2023-06-15T00:46:00.568Z,3.97
2023-06-15T00:49:04.533Z,3.08
2023-06-15T00:52:10.145Z,3.90
2023-06-15T00:55:20.075Z,3.58
2023-06-15T00:58:23.213Z,3.80
2023-06-15T01:01:27.518Z,3.97
2023-06-15T01:04:32.473Z,3.42
2023-06-15T01:07:36.408Z,3.42
2023-06-15T01:10:42.079Z,3.88
2023-06-15T01:13:50.094Z,3.85
2023-06-15T01:17:00.602Z,3.95
2023-06-15T01:20:06.231Z,3.50
2023-06-15T01:23:14.408Z,3.88
2023-06-15T01:26:25.199Z,4.07
2023-06-15T01:29:36.551Z,4.80
2023-06-15T01:32:38.948Z,3.75
2023-06-15T01:35:44.010Z,4.53
2023-06-15T01:38:55.641Z,4.50
2023-06-15T01:42:02.340Z,4.40
2023-06-15T01:45:05.727Z,4.32
2023-06-15T01:48:11.302Z,4.35
2023-06-15T01:51:21.010Z,3.63
2023-06-15T01:54:23.333Z,4.07
2023-06-15T01:57:32.057Z,4.18
2023-06-15T02:00:46.203Z,4.10
2023-06-15T02:03:48.523Z,3.92
2023-06-15T02:06:50.760Z,4.18
2023-06-15T02:09:54.244Z,3.88
2023-06-15T02:13:00.879Z,3.83
2023-06-15T02:16:08.234Z,4.13
2023-06-15T02:19:10.564Z,4.32
2023-06-15T02:22:14.188Z,4.80
2023-06-15T02:25:16.608Z,4.18
2023-06-15T02:28:19.149Z,4.68
2023-06-15T02:31:26.312Z,4.47
2023-06-15T02:34:31.770Z,4.30
2023-06-15T02:37:39.560Z,4.35
2023-06-15T02:40:42.198Z,4.45
2023-06-15T02:43:44.576Z,4.25
2023-06-15T02:46:49.391Z,4.68
2023-06-15T02:49:51.768Z,4.75
2023-06-15T02:52:54.589Z,4.35
2023-06-15T02:55:58.304Z,4.80
2023-06-15T02:59:01.404Z,4.15
2023-06-15T03:02:34.966Z,4.68
2023-06-15T03:05:40.709Z,4.90
2023-06-15T03:08:46.077Z,4.70
2023-06-15T03:11:54.965Z,4.68
2023-06-15T03:15:05.704Z,4.35
2023-06-15T03:18:13.096Z,4.55
2023-06-15T03:21:21.291Z,4.78
2023-06-15T03:24:26.970Z,4.40
2023-06-15T03:27:31.058Z,4.03
2023-06-15T03:30:35.880Z,4.70
2023-06-15T03:33:43.748Z,4.20
2023-06-15T03:36:52.594Z,4.38
2023-06-15T03:39:58.295Z,4.70
2023-06-15T03:43:03.541Z,4.30
2023-06-15T03:46:14.577Z,5.13
2023-06-15T03:49:19.877Z,4.18
2023-06-15T03:52:22.825Z,4.68
2023-06-15T03:55:26.344Z,4.80
2023-06-15T03:58:29.139Z,4.22
2023-06-15T04:01:34.103Z,4.53
2023-06-15T04:04:40.828Z,4.35
2023-06-15T04:07:45.538Z,4.47
2023-06-15T04:10:47.964Z,4.55
2023-06-15T04:13:57.615Z,3.78
2023-06-15T04:16:59.957Z,3.92
2023-06-15T04:20:05.783Z,4.10
2023-06-15T04:23:10.044Z,4.50
2023-06-15T04:26:14.484Z,4.43
2023-06-15T04:29:19.631Z,4.70
2023-06-15T04:32:26.881Z,4.25
2023-06-15T04:35:33.361Z,4.43
2023-06-15T04:38:38.044Z,3.78
2023-06-15T04:41:43.522Z,3.80
2023-06-15T04:44:48.593Z,4.18
2023-06-15T04:47:51.720Z,4.22
2023-06-15T04:50:54.845Z,4.00
2023-06-15T04:53:57.395Z,4.05
2023-06-15T04:57:02.021Z,4.00
2023-06-15T05:00:08.195Z,3.35
2023-06-15T05:03:15.252Z,3.65
2023-06-15T05:06:18.219Z,3.83
2023-06-15T05:12:29.380Z,3.60
2023-06-15T05:15:34.680Z,4.45
2023-06-15T05:18:39.423Z,3.90
2023-06-15T05:21:44.353Z,3.90
2023-06-15T05:24:46.777Z,3.30
2023-06-15T05:27:51.998Z,3.88
2023-06-15T05:30:55.231Z,3.28
2023-06-15T05:34:00.164Z,4.03
2023-06-15T05:37:03.169Z,4.18
2023-06-15T05:40:11.113Z,3.50
2023-06-15T05:43:13.729Z,3.83
2023-06-15T05:46:16.312Z,3.72
2023-06-15T05:49:18.642Z,3.60
2023-06-15T05:52:21.495Z,3.47
2023-06-15T05:55:24.766Z,3.88
2023-06-15T05:58:29.533Z,3.42
2023-06-15T06:01:32.156Z,3.42
2023-06-15T06:04:37.245Z,3.58
2023-06-15T06:07:41.781Z,3.42
2023-06-15T06:10:44.096Z,3.95
2023-06-15T06:14:01.000Z,4.05
2023-06-15T06:17:06.692Z,4.15
2023-06-15T06:20:10.953Z,4.18
2023-06-15T06:23:13.411Z,3.70
2023-06-15T06:26:15.787Z,3.80
2023-06-15T06:29:18.051Z,3.40
2023-06-15T06:32:21.700Z,3.63
2023-06-15T06:35:26.322Z,3.70
2023-06-15T06:38:28.914Z,3.55
2023-06-15T06:44:38.295Z,4.03
2023-06-15T06:47:42.831Z,3.45
2023-06-15T06:50:45.323Z,3.17
2023-06-15T06:53:48.214Z,3.40
2023-06-15T06:56:55.831Z,3.78
2023-06-15T06:59:58.170Z,4.07
2023-06-15T07:03:02.842Z,3.67
2023-06-15T07:06:07.590Z,3.78
2023-06-15T07:09:09.885Z,3.63
2023-06-15T07:12:14.322Z,3.75
2023-06-15T07:15:19.041Z,3.53
2023-06-15T07:18:24.219Z,3.53
2023-06-15T07:21:26.951Z,4.03
2023-06-15T07:24:29.293Z,4.10
2023-06-15T07:27:31.752Z,4.38
2023-06-15T07:30:36.363Z,3.35
2023-06-15T07:33:41.803Z,4.43
2023-06-15T07:36:44.200Z,4.00
2023-06-15T07:39:46.595Z,3.55
2023-06-15T07:42:48.953Z,3.95
2023-06-15T07:45:53.889Z,3.70
2023-06-15T07:49:01.395Z,3.55
2023-06-15T07:52:10.600Z,3.72
2023-06-15T07:55:13.470Z,3.65
2023-06-15T07:58:15.990Z,4.20
2023-06-15T08:01:24.020Z,3.63
2023-06-15T08:04:26.381Z,3.97
2023-06-15T08:07:31.575Z,3.85
2023-06-15T08:10:36.513Z,3.70
2023-06-15T08:13:41.320Z,3.88
2023-06-15T08:16:43.645Z,3.80
2023-06-15T08:19:46.887Z,3.80
2023-06-15T08:22:49.300Z,3.80
2023-06-15T08:25:53.928Z,4.50
2023-06-15T08:29:09.803Z,4.22
2023-06-15T08:32:23.919Z,3.38
2023-06-15T08:35:26.337Z,3.08
2023-06-15T08:38:28.663Z,3.33
2023-06-15T08:41:31.336Z,3.15
2023-06-15T08:44:34.994Z,3.38
2023-06-15T08:47:38.092Z,3.35
2023-06-15T08:50:43.866Z,3.15
2023-06-15T08:53:51.365Z,3.50
2023-06-15T08:56:56.638Z,3.10
2023-06-15T09:00:00.268Z,3.53
2023-06-15T09:03:08.601Z,2.97
2023-06-15T09:06:14.089Z,2.83
2023-06-15T09:09:18.672Z,2.85
2023-06-15T09:12:23.399Z,2.83
2023-06-15T09:15:28.796Z,3.00
2023-06-15T09:18:46.128Z,3.47
2023-06-15T09:21:54.942Z,3.33
2023-06-15T09:24:57.318Z,3.33
2023-06-15T09:28:10.463Z,3.03
2023-06-15T09:31:31.657Z,3.30
2023-06-15T09:34:38.268Z,3.53
2023-06-15T09:37:40.863Z,3.53
2023-06-15T09:40:45.600Z,3.85
2023-06-15T09:43:52.386Z,3.17
2023-06-15T09:46:58.613Z,3.65
2023-06-15T09:50:01.051Z,3.00
2023-06-15T09:53:03.863Z,3.22
2023-06-15T09:56:17.305Z,3.03
2023-06-15T10:02:32.969Z,3.13
2023-06-15T10:05:44.373Z,3.22
2023-06-15T10:08:54.289Z,3.42
2023-06-15T10:12:07.871Z,2.92
2023-06-15T10:15:19.484Z,3.05
2023-06-15T10:18:23.757Z,3.45
2023-06-15T10:21:30.259Z,3.17
2023-06-15T10:24:33.737Z,3.20
2023-06-15T10:27:36.449Z,3.90
2023-06-15T10:31:07.147Z,3.30
2023-06-15T10:34:42.596Z,3.30
2023-06-15T10:37:44.965Z,3.10
2023-06-15T10:40:49.271Z,3.20
2023-06-15T10:44:02.835Z,4.03
2023-06-15T10:47:09.898Z,2.90
2023-06-15T10:50:17.157Z,2.95
2023-06-15T10:53:27.928Z,3.20
2023-06-15T10:56:35.464Z,3.20
2023-06-15T10:59:50.836Z,3.13
2023-06-15T11:03:00.858Z,3.17
2023-06-15T11:06:16.622Z,3.60
2023-06-15T11:09:22.024Z,3.47
2023-06-15T11:12:40.920Z,3.45
2023-06-15T11:15:43.836Z,3.33
2023-06-15T11:18:58.461Z,3.83
2023-06-15T11:22:02.921Z,3.33
2023-06-15T11:25:12.450Z,3.40
2023-06-15T11:28:35.018Z,3.08
2023-06-15T11:31:42.145Z,2.97
2023-06-15T11:34:46.650Z,2.92
2023-06-15T11:37:48.925Z,3.10
2023-06-15T11:40:51.766Z,3.05
2023-06-15T11:43:59.868Z,3.53
2023-06-15T11:47:03.084Z,3.17
2023-06-15T11:50:08.975Z,3.50
2023-06-15T11:53:20.265Z,3.03
2023-06-15T11:56:26.127Z,3.05
2023-06-15T11:59:36.615Z,4.00
2023-06-15T12:02:42.455Z,2.78
2023-06-15T12:05:46.092Z,2.92
2023-06-15T12:08:56.751Z,3.17
2023-06-15T12:11:59.159Z,3.38
2023-06-15T12:15:03.091Z,3.13
2023-06-15T12:18:10.750Z,3.05
2023-06-15T12:21:19.968Z,3.15
2023-06-15T12:24:28.462Z,3.25
2023-06-15T12:27:34.821Z,3.55
2023-06-15T12:30:40.756Z,3.08
2023-06-15T12:33:53.593Z,2.83
2023-06-15T12:36:57.413Z,3.00
2023-06-15T12:40:02.590Z,3.40
2023-06-15T12:43:05.052Z,3.25
2023-06-15T12:46:07.722Z,3.28
2023-06-15T12:49:14.059Z,2.78
2023-06-15T12:52:21.210Z,3.33
2023-06-15T12:55:26.672Z,3.35
2023-06-15T12:58:33.210Z,2.72
2023-06-15T13:01:37.767Z,2.97
2023-06-15T13:04:46.258Z,3.00
2023-06-15T13:07:49.196Z,3.08
2023-06-15T13:10:54.783Z,2.63
2023-06-15T13:13:59.512Z,3.10
2023-06-15T13:17:02.360Z,2.88
2023-06-15T13:20:14.408Z,3.08
2023-06-15T13:23:16.760Z,2.83
2023-06-15T13:26:19.046Z,2.88
2023-06-15T13:29:21.327Z,2.67
2023-06-15T13:32:26.022Z,2.65
2023-06-15T13:35:30.637Z,2.75
2023-06-15T13:38:36.017Z,2.72
2023-06-15T13:41:38.387Z,2.92
2023-06-15T13:44:41.050Z,3.00
2023-06-15T13:47:43.874Z,3.90
2023-06-15T13:50:48.557Z,3.22
2023-06-15T13:53:50.884Z,2.80
2023-06-15T13:56:53.709Z,3.60
2023-06-15T13:59:56.291Z,3.83
2023-06-15T14:03:05.473Z,3.00
2023-06-15T14:06:10.850Z,3.03
2023-06-15T14:09:16.109Z,2.90
2023-06-15T14:12:21.320Z,3.35
2023-06-15T14:15:26.266Z,2.78
2023-06-15T14:18:31.403Z,2.80
2023-06-15T14:21:36.097Z,3.00
2023-06-15T14:24:41.497Z,2.83
2023-06-15T14:27:48.649Z,3.35
2023-06-15T14:30:54.442Z,3.33
2023-06-15T14:33:59.140Z,2.97
2023-06-15T14:37:01.540Z,2.83
2023-06-15T14:40:06.533Z,3.40
2023-06-15T14:43:11.027Z,2.40
2023-06-15T14:46:13.522Z,3.38
2023-06-15T14:49:18.865Z,3.35
2023-06-15T14:52:23.658Z,2.85
2023-06-15T14:55:26.237Z,3.00
2023-06-15T14:58:30.759Z,3.35
2023-06-15T15:01:39.560Z,3.47
2023-06-15T15:04:42.102Z,3.13
2023-06-15T15:07:46.960Z,2.92
2023-06-15T15:10:49.389Z,3.70
2023-06-15T15:13:51.737Z,3.55
2023-06-15T15:16:54.137Z,3.35
2023-06-15T15:19:58.842Z,3.20
2023-06-15T15:23:03.725Z,2.83
2023-06-15T15:26:09.291Z,3.47
2023-06-15T15:29:13.876Z,3.38
2023-06-15T15:32:18.586Z,2.70
2023-06-15T15:35:24.055Z,3.38
2023-06-15T15:38:26.421Z,2.70
2023-06-15T15:41:28.758Z,3.22
2023-06-15T15:44:33.352Z,3.10
2023-06-15T15:47:35.854Z,3.40
2023-06-15T15:50:39.160Z,2.95
2023-06-15T15:53:44.136Z,2.90
2023-06-15T15:59:48.579Z,3.05
2023-06-15T16:02:51.045Z,3.20
2023-06-15T16:05:55.958Z,3.00
2023-06-15T16:08:58.268Z,3.28
2023-06-15T16:12:03.763Z,3.58
2023-06-15T16:15:12.208Z,2.97
2023-06-15T16:18:15.139Z,2.58
2023-06-15T16:21:17.452Z,2.58
2023-06-15T16:24:19.851Z,3.50
2023-06-15T16:27:24.410Z,2.97
2023-06-15T16:30:28.964Z,2.80
2023-06-15T16:33:33.862Z,3.00
2023-06-15T16:36:43.393Z,3.22
2023-06-15T16:39:50.680Z,2.90
2023-06-15T16:42:57.812Z,3.00
2023-06-15T16:46:02.361Z,2.80
2023-06-15T16:49:04.787Z,2.90
2023-06-15T16:52:11.644Z,3.00
2023-06-15T16:55:16.449Z,3.00
2023-06-15T16:58:22.670Z,2.60
2023-06-15T17:01:25.414Z,2.72
2023-06-15T17:04:28.274Z,2.72
2023-06-15T17:07:33.352Z,2.85
2023-06-15T17:13:37.908Z,3.38
2023-06-15T17:16:40.868Z,3.28
2023-06-15T17:19:45.019Z,3.08
2023-06-15T17:22:52.297Z,2.67
2023-06-15T17:28:59.512Z,2.67
2023-06-15T17:32:02.099Z,2.47
2023-06-15T17:35:04.930Z,3.00
2023-06-15T17:38:11.292Z,2.58
2023-06-15T17:41:15.654Z,3.42
2023-06-15T17:44:20.328Z,2.85
2023-06-15T17:47:25.405Z,2.97
2023-06-15T17:50:27.641Z,2.45
2023-06-15T17:53:33.496Z,3.13
2023-06-15T17:56:36.574Z,2.85
2023-06-15T17:59:41.673Z,2.65
2023-06-15T18:02:46.450Z,2.50
2023-06-15T18:05:52.132Z,2.83
2023-06-15T18:08:55.879Z,2.70
2023-06-15T18:11:58.455Z,2.40
2023-06-15T18:15:01.213Z,3.25
2023-06-15T18:18:04.467Z,3.20
2023-06-15T18:21:09.143Z,3.03
2023-06-15T18:24:13.080Z,2.90
2023-06-15T18:27:19.121Z,3.35
2023-06-15T18:30:21.636Z,2.58
2023-06-15T18:33:27.193Z,2.70
2023-06-15T18:36:30.106Z,3.00
2023-06-15T18:39:32.363Z,3.17
2023-06-15T18:42:40.295Z,2.95
2023-06-15T18:45:44.869Z,3.03
2023-06-15T18:48:49.558Z,2.78
2023-06-15T18:51:54.382Z,3.20
2023-06-15T18:54:58.867Z,3.20
2023-06-15T18:58:04.930Z,2.65
2023-06-15T19:01:07.447Z,3.22
2023-06-15T19:04:12.121Z,3.40
2023-06-15T19:07:15.564Z,3.05
2023-06-15T19:10:18.038Z,3.40
2023-06-15T19:13:26.271Z,4.88
2023-06-15T19:16:32.019Z,3.70
2023-06-15T19:19:39.697Z,3.35
2023-06-15T19:22:45.557Z,3.50
2023-06-15T19:25:53.806Z,3.63
2023-06-15T19:28:56.375Z,3.78
2023-06-15T19:31:58.658Z,3.33
2023-06-15T19:35:01.032Z,3.22
2023-06-15T19:38:05.925Z,3.60
2023-06-15T19:41:08.643Z,3.58
2023-06-15T19:44:13.237Z,3.83
2023-06-15T19:47:18.254Z,4.28
2023-06-15T19:50:20.845Z,3.55
2023-06-15T19:53:23.755Z,3.58
2023-06-15T19:56:28.356Z,3.80
2023-06-15T19:59:32.964Z,3.85
2023-06-15T20:02:39.871Z,3.80
2023-06-15T20:05:42.254Z,4.22
2023-06-15T20:08:49.455Z,3.80
2023-06-15T20:11:52.194Z,4.30
2023-06-15T20:18:01.471Z,3.67
2023-06-15T20:21:06.793Z,3.50
2023-06-15T20:24:09.091Z,3.63
2023-06-15T20:27:11.855Z,4.20
2023-06-15T20:30:16.641Z,3.42
2023-06-15T20:33:19.114Z,3.95
2023-06-15T20:36:21.630Z,3.50
2023-06-15T20:39:30.031Z,4.28
2023-06-15T20:42:32.521Z,4.13
2023-06-15T20:45:37.629Z,3.92
2023-06-15T20:51:42.049Z,4.25
2023-06-15T20:54:44.591Z,4.47
2023-06-15T20:57:46.896Z,4.45
2023-06-15T21:00:49.474Z,4.35
2023-06-15T21:03:52.553Z,4.15
2023-06-15T21:06:54.947Z,4.60
2023-06-15T21:09:57.873Z,4.03
2023-06-15T21:13:02.676Z,4.55
2023-06-15T21:16:08.450Z,4.25
2023-06-15T21:19:11.027Z,4.35
2023-06-15T21:22:13.675Z,4.43
2023-06-15T21:25:18.902Z,4.40
2023-06-15T21:28:21.308Z,4.50
2023-06-15T21:31:23.922Z,3.83
2023-06-15T21:34:27.271Z,3.42
2023-06-15T21:37:29.622Z,3.55
2023-06-15T21:40:34.860Z,3.33
2023-06-15T21:43:39.326Z,3.20
2023-06-15T21:46:44.250Z,3.50
2023-06-15T21:49:46.961Z,3.88
2023-06-15T21:52:51.559Z,3.53
2023-06-15T21:55:53.972Z,3.50
2023-06-15T21:58:56.290Z,3.50
2023-06-15T22:01:58.765Z,3.20
2023-06-15T22:05:01.268Z,3.08
2023-06-15T22:08:06.347Z,3.13
2023-06-15T22:11:11.717Z,4.03
2023-06-15T22:14:18.611Z,3.03
2023-06-15T22:17:22.302Z,3.60
2023-06-15T22:20:28.135Z,3.55
2023-06-15T22:23:33.642Z,4.05
2023-06-15T22:26:45.557Z,4.00
2023-06-15T22:29:52.998Z,3.80
2023-06-15T22:32:56.097Z,3.63
2023-06-15T22:36:00.834Z,3.60
2023-06-15T22:39:03.627Z,3.90
2023-06-15T22:42:09.791Z,3.47
2023-06-15T22:45:17.521Z,3.72
2023-06-15T22:48:23.719Z,3.72
2023-06-15T22:51:30.755Z,3.72
2023-06-15T22:54:33.258Z,3.72
2023-06-15T22:57:38.001Z,3.60
2023-06-15T23:00:42.572Z,3.42
2023-06-15T23:03:44.906Z,3.65
2023-06-15T23:06:48.359Z,3.63
2023-06-15T23:09:53.054Z,4.20
2023-06-15T23:12:57.421Z,3.80
2023-06-15T23:16:01.275Z,4.00
2023-06-15T23:19:06.395Z,3.55
2023-06-15T23:22:12.404Z,3.70
2023-06-15T23:25:17.000Z,4.10
2023-06-15T23:28:20.555Z,4.10
2023-06-15T23:31:30.901Z,3.95
2023-06-15T23:34:36.143Z,3.50
2023-06-15T23:37:38.437Z,3.53
2023-06-15T23:40:44.001Z,3.97
2023-06-15T23:43:51.128Z,4.00
2023-06-15T23:46:53.440Z,3.90
2023-06-15T23:49:58.708Z,4.15
2023-06-15T23:53:01.122Z,4.10
2023-06-15T23:56:06.563Z,3.95
2023-06-15T23:59:09.442Z,4.82
